Time;durP1;ratioP1;P1;durP2;ratioP2;P2;SDS_P1;SDS_P2;PMS_P1;PMS_P2;Temp;Humidity;BMP_temperature;BMP_pressure;BME280_temperature;BME280_humidity;BME280_pressure;Samples;Min_cycle;Max_cycle;Signal;HPM_P1;HPM_P2
2024/01/30 00:02:36;;;;;;;32.90;18.20;;;;;;;2.15;83.13;101849.54;129875;1266;107942;-85
2024/01/30 00:05:42;;;;;;;33.50;17.90;;;;;;;2.12;83.14;101844.39;129912;1266;106690;-85
2024/01/30 00:08:48;;;;;;;31.70;17.60;;;;;;;2.08;83.02;101848.94;129928;1267;108827;-84
2024/01/30 00:11:54;;;;;;;38.80;18.70;;;;;;;2.04;83.07;101843.13;129934;1278;106776;-84
2024/01/30 00:15:00;;;;;;;32.00;17.60;;;;;;;2.01;83.08;101841.82;129869;1271;106849;-84
2024/01/30 00:18:06;;;;;;;31.00;15.70;;;;;;;2.01;83.12;101835.88;129910;1264;107295;-83
2024/01/30 00:21:12;;;;;;;31.30;16.90;;;;;;;2.03;83.10;101837.54;130005;1266;107704;-86
2024/01/30 00:24:18;;;;;;;33.20;17.70;;;;;;;2.07;82.96;101840.02;129850;1266;106922;-85
2024/01/30 00:27:23;;;;;;;34.30;17.20;;;;;;;2.08;82.90;101839.45;130012;1264;107516;-85
2024/01/30 00:30:29;;;;;;;31.20;17.40;;;;;;;2.08;82.80;101840.13;129969;1267;106471;-85
2024/01/30 00:33:35;;;;;;;31.60;17.70;;;;;;;2.07;82.79;101841.77;129958;1264;106762;-86
2024/01/30 00:36:40;;;;;;;32.20;17.50;;;;;;;2.05;82.62;101846.58;129887;1267;108552;-84
2024/01/30 00:39:46;;;;;;;32.70;16.80;;;;;;;2.02;82.67;101846.86;129954;1264;107441;-85
2024/01/30 00:42:52;;;;;;;29.20;16.50;;;;;;;1.98;82.68;101848.08;129891;1266;108677;-85
2024/01/30 00:45:57;;;;;;;31.10;16.80;;;;;;;1.93;82.63;101845.42;130020;1266;108726;-85
2024/01/30 00:49:03;;;;;;;32.70;17.40;;;;;;;1.89;82.55;101838.59;130045;1267;108647;-85
2024/01/30 00:52:09;;;;;;;33.00;16.60;;;;;;;1.86;82.61;101836.62;129956;1267;108766;-85
2024/01/30 00:55:15;;;;;;;29.90;14.90;;;;;;;1.83;82.61;101831.95;129881;1266;106999;-85
2024/01/30 00:58:20;;;;;;;29.20;16.00;;;;;;;1.88;82.58;101832.12;129849;1264;107782;-84
2024/01/30 01:01:26;;;;;;;32.00;17.40;;;;;;;1.92;82.55;101831.45;129795;1263;107661;-83
2024/01/30 01:04:32;;;;;;;31.80;17.30;;;;;;;1.97;82.36;101834.09;129914;1264;108613;-86
2024/01/30 01:07:38;;;;;;;30.50;16.40;;;;;;;1.99;82.35;101841.04;129918;1264;107199;-84
2024/01/30 01:10:43;;;;;;;31.20;16.40;;;;;;;1.99;82.15;101837.52;129936;1265;107642;-85
2024/01/30 01:13:49;;;;;;;28.30;16.10;;;;;;;1.96;82.18;101835.84;129906;1267;107626;-85
2024/01/30 01:16:54;;;;;;;29.50;16.20;;;;;;;1.92;82.28;101837.05;129999;1264;107226;-85
2024/01/30 01:20:00;;;;;;;30.70;16.30;;;;;;;1.87;82.12;101830.40;129867;1267;108705;-84
2024/01/30 01:23:06;;;;;;;31.20;17.70;;;;;;;1.84;82.07;101827.73;130016;1263;108807;-86
2024/01/30 01:26:12;;;;;;;33.40;17.60;;;;;;;1.77;81.98;101823.23;129882;1263;108648;-84
2024/01/30 01:29:17;;;;;;;34.30;18.60;;;;;;;1.74;82.02;101821.77;129994;1266;108392;-86
2024/01/30 01:32:23;;;;;;;33.70;18.90;;;;;;;1.72;82.22;101825.17;129924;1267;108779;-84
2024/01/30 01:35:29;;;;;;;30.30;15.70;;;;;;;1.72;82.31;101827.29;129993;1267;108478;-85
2024/01/30 01:38:34;;;;;;;26.70;13.70;;;;;;;1.76;82.19;101828.22;129926;1266;108767;-85
2024/01/30 01:41:40;;;;;;;28.50;14.80;;;;;;;1.80;82.11;101826.30;130016;1264;108015;-85
2024/01/30 01:44:45;;;;;;;26.60;15.20;;;;;;;1.83;81.90;101824.08;130004;1267;108660;-84
2024/01/30 01:47:54;;;;;;;31.30;16.10;;;;;;;1.85;81.90;101819.60;129979;1267;108705;-84
2024/01/30 01:51:00;;;;;;;27.10;15.30;;;;;;;1.84;81.73;101820.17;129943;1267;107739;-85
2024/01/30 01:54:06;;;;;;;28.60;15.00;;;;;;;1.83;81.63;101819.70;130020;1267;108796;-83
2024/01/30 01:57:12;;;;;;;29.30;15.70;;;;;;;1.77;81.63;101826.75;130034;1267;108708;-85
2024/01/30 02:00:19;;;;;;;29.50;15.90;;;;;;;1.72;81.64;101820.45;129876;1263;108805;-85
2024/01/30 02:03:24;;;;;;;33.70;17.40;;;;;;;1.70;81.66;101813.86;130043;1267;107778;-85
2024/01/30 02:06:30;;;;;;;29.10;15.60;;;;;;;1.63;81.45;101818.69;129871;1264;107725;-84
2024/01/30 02:09:35;;;;;;;28.00;14.50;;;;;;;1.55;81.45;101822.12;129845;1267;106937;-85
2024/01/30 02:12:41;;;;;;;29.50;15.50;;;;;;;1.52;81.64;101815.76;129917;1264;109028;-85
2024/01/30 02:15:51;;;;;;;26.70;14.40;;;;;;;1.49;81.53;101810.45;129918;1264;106782;-84
2024/01/30 02:18:57;;;;;;;24.90;13.80;;;;;;;1.44;81.57;101803.77;129896;1264;107304;-84
2024/01/30 02:22:03;;;;;;;25.80;14.60;;;;;;;1.40;81.60;101801.48;129798;1271;107742;-85
2024/01/30 02:25:10;;;;;;;25.10;14.20;;;;;;;1.33;81.50;101798.91;129953;1264;107386;-85
2024/01/30 02:28:16;;;;;;;28.20;15.20;;;;;;;1.28;81.68;101795.93;129829;1264;107000;-85
2024/01/30 02:31:21;;;;;;;26.10;12.80;;;;;;;1.29;81.83;101800.13;129864;1270;108634;-85
2024/01/30 02:34:27;;;;;;;22.40;11.30;;;;;;;1.33;81.67;101800.69;129868;1264;107774;-85
2024/01/30 02:37:32;;;;;;;24.30;13.10;;;;;;;1.40;81.62;101797.46;129857;1264;109155;-85
2024/01/30 02:40:38;;;;;;;24.10;12.90;;;;;;;1.46;81.44;101801.06;129940;1264;107059;-84
2024/01/30 02:43:44;;;;;;;26.60;13.90;;;;;;;1.49;81.35;101800.44;129952;1264;108106;-84
2024/01/30 02:46:49;;;;;;;25.40;13.20;;;;;;;1.52;81.26;101802.45;129943;1264;107447;-86
2024/01/30 02:49:55;;;;;;;22.30;13.10;;;;;;;1.53;81.35;101798.68;130025;1266;108744;-86
2024/01/30 02:53:00;;;;;;;24.60;13.00;;;;;;;1.55;81.02;101799.69;129946;1264;106197;-86
2024/01/30 02:56:09;;;;;;;23.90;12.10;;;;;;;1.55;81.21;101804.24;130046;1267;107753;-85
2024/01/30 02:59:15;;;;;;;26.50;13.60;;;;;;;1.54;81.19;101797.80;129874;1267;107708;-86
2024/01/30 03:02:20;;;;;;;21.80;12.30;;;;;;;1.50;81.11;101796.35;129981;1267;108759;-85
2024/01/30 03:05:26;;;;;;;25.10;13.20;;;;;;;1.47;81.24;101796.46;129988;1264;108693;-84
2024/01/30 03:08:32;;;;;;;23.60;12.10;;;;;;;1.48;81.13;101795.93;130085;1264;107172;-82
2024/01/30 03:11:37;;;;;;;22.80;12.40;;;;;;;1.46;81.28;101800.02;129965;1266;107268;-84
2024/01/30 03:14:43;;;;;;;23.10;12.50;;;;;;;1.44;81.20;101801.34;129912;1267;106332;-84
2024/01/30 03:17:53;;;;;;;24.10;11.80;;;;;;;1.41;81.31;101801.06;130014;1267;108376;-86
2024/01/30 03:20:59;;;;;;;24.00;11.20;;;;;;;1.43;81.16;101798.93;130005;1267;108202;-84
2024/01/30 03:24:05;;;;;;;21.00;11.80;;;;;;;1.48;81.31;101794.17;129909;1264;107338;-85
2024/01/30 03:27:11;;;;;;;20.70;10.40;;;;;;;1.53;81.04;101792.90;129928;1267;105873;-86
2024/01/30 03:30:17;;;;;;;24.50;13.10;;;;;;;1.56;81.00;101794.54;129949;1266;107882;-85
2024/01/30 03:33:23;;;;;;;24.70;13.40;;;;;;;1.57;80.96;101797.14;130048;1264;107742;-86
2024/01/30 03:36:28;;;;;;;34.40;15.40;;;;;;;1.56;80.95;101796.48;130013;1264;107799;-84
2024/01/30 03:39:34;;;;;;;30.30;14.10;;;;;;;1.54;80.89;101794.27;130435;1264;106371;-87
2024/01/30 03:42:39;;;;;;;22.10;12.90;;;;;;;1.53;80.87;101796.09;129937;1264;108503;-83
2024/01/30 03:45:45;;;;;;;27.20;14.30;;;;;;;1.52;80.84;101797.52;130103;1267;107256;-81
2024/01/30 03:48:51;;;;;;;30.00;15.80;;;;;;;1.47;80.84;101802.25;129988;1267;106671;-83
2024/01/30 03:51:56;;;;;;;27.60;14.60;;;;;;;1.46;80.81;101798.10;130057;1264;108520;-86
2024/01/30 03:55:02;;;;;;;22.10;11.40;;;;;;;1.42;80.90;101799.11;130127;1266;107076;-83
2024/01/30 03:58:08;;;;;;;20.40;11.10;;;;;;;1.39;80.92;101796.95;130233;1265;106880;-82
2024/01/30 04:01:17;;;;;;;25.00;13.00;;;;;;;1.36;80.98;101794.77;130178;1264;108933;-84
2024/01/30 04:04:23;;;;;;;21.60;10.40;;;;;;;1.36;81.08;101793.55;129987;1267;108507;-84
2024/01/30 04:07:29;;;;;;;18.20;9.50;;;;;;;1.39;81.04;101792.38;129851;1264;107849;-85
2024/01/30 04:10:34;;;;;;;20.00;10.70;;;;;;;1.45;80.94;101792.00;129880;1267;107612;-83
2024/01/30 04:13:40;;;;;;;39.60;15.50;;;;;;;1.50;81.00;101791.63;129893;1264;106544;-83
2024/01/30 04:16:45;;;;;;;29.00;15.80;;;;;;;1.55;80.93;101796.19;129826;1265;107713;-84
2024/01/30 04:19:51;;;;;;;21.30;11.50;;;;;;;1.54;80.57;101794.77;129961;1263;105802;-84
2024/01/30 04:22:57;;;;;;;29.10;14.50;;;;;;;1.53;80.78;101794.48;129951;1267;107677;-84
2024/01/30 04:26:02;;;;;;;22.20;12.00;;;;;;;1.52;80.73;101791.92;129874;1266;108733;-83
2024/01/30 04:29:08;;;;;;;23.30;11.90;;;;;;;1.48;80.66;101791.35;129812;1264;108759;-83
2024/01/30 04:32:14;;;;;;;30.40;12.30;;;;;;;1.45;80.71;101790.24;129930;1267;108822;-85
2024/01/30 04:35:23;;;;;;;25.70;13.40;;;;;;;1.43;80.75;101788.05;129942;1264;108729;-84
2024/01/30 04:38:28;;;;;;;60.30;26.30;;;;;;;1.39;80.71;101791.50;129830;1264;108694;-82
2024/01/30 04:41:34;;;;;;;40.80;17.80;;;;;;;1.34;80.63;101787.98;129935;1264;106715;-82
2024/01/30 04:44:40;;;;;;;120.70;40.20;;;;;;;1.31;80.76;101787.95;129867;1264;108717;-84
2024/01/30 04:47:46;;;;;;;84.50;31.20;;;;;;;1.28;80.77;101788.94;129765;1267;106792;-84
2024/01/30 04:50:51;;;;;;;30.50;13.70;;;;;;;1.26;80.75;101782.36;129669;1266;108543;-85
2024/01/30 04:53:57;;;;;;;22.60;10.30;;;;;;;1.24;80.77;101782.75;129680;1264;106349;-83
2024/01/30 04:57:03;;;;;;;26.20;12.10;;;;;;;1.28;80.75;101781.55;129905;1267;108581;-83
2024/01/30 05:00:11;;;;;;;21.80;9.80;;;;;;;1.34;80.86;101780.65;129834;1264;108282;-82
2024/01/30 05:03:17;;;;;;;26.30;11.90;;;;;;;1.38;80.67;101778.90;129892;1267;107866;-83
2024/01/30 05:06:28;;;;;;;29.60;12.50;;;;;;;1.44;80.70;101783.98;129849;1267;109018;-84
2024/01/30 05:09:33;;;;;;;77.60;26.30;;;;;;;1.46;80.69;101782.83;129726;1267;106889;-83
2024/01/30 05:12:39;;;;;;;47.00;23.70;;;;;;;1.47;80.67;101786.66;129976;1264;108689;-83
2024/01/30 05:15:45;;;;;;;41.70;18.40;;;;;;;1.46;80.58;101788.95;129795;1267;108768;-81
2024/01/30 05:18:50;;;;;;;26.00;14.20;;;;;;;1.44;80.57;101791.48;129788;1265;108707;-82
2024/01/30 05:21:56;;;;;;;22.30;11.50;;;;;;;1.42;80.52;101791.77;129883;1267;108621;-84
2024/01/30 05:25:02;;;;;;;49.00;26.70;;;;;;;1.36;80.53;101790.73;129873;1264;106470;-84
2024/01/30 05:28:08;;;;;;;48.50;23.90;;;;;;;1.33;80.59;101791.39;129900;1267;108699;-83
2024/01/30 05:31:13;;;;;;;62.70;28.40;;;;;;;1.30;80.52;101795.16;129908;1266;107855;-82
2024/01/30 05:34:19;;;;;;;60.90;27.00;;;;;;;1.26;80.53;101796.01;129877;1264;106369;-84
2024/01/30 05:37:25;;;;;;;36.10;18.10;;;;;;;1.22;80.57;101790.38;129873;1264;106679;-83
2024/01/30 05:40:30;;;;;;;25.80;12.80;;;;;;;1.17;80.58;101792.46;129882;1267;108740;-84
2024/01/30 05:43:36;;;;;;;23.50;12.40;;;;;;;1.15;80.72;101795.85;129838;1266;108662;-84
2024/01/30 05:46:41;;;;;;;20.00;11.30;;;;;;;1.13;80.62;101791.57;129924;1264;106531;-83
2024/01/30 05:49:47;;;;;;;22.00;9.60;;;;;;;1.15;80.74;101792.36;129943;1266;106887;-84
2024/01/30 05:52:53;;;;;;;22.60;11.20;;;;;;;1.22;80.69;101792.49;129898;1264;107650;-84
2024/01/30 05:55:58;;;;;;;51.90;22.40;;;;;;;1.27;80.65;101794.23;130589;1263;106660;-84
2024/01/30 05:59:04;;;;;;;31.20;15.30;;;;;;;1.28;80.55;101795.23;130280;1266;107767;-84
2024/01/30 06:02:11;;;;;;;39.20;19.20;;;;;;;1.27;80.51;101794.05;130026;1267;108719;-83
2024/01/30 06:05:16;;;;;;;34.90;14.60;;;;;;;1.27;80.58;101794.75;130019;1267;105582;-83
2024/01/30 06:08:22;;;;;;;29.70;15.60;;;;;;;1.27;80.52;101794.41;129974;1267;108683;-84
2024/01/30 06:11:28;;;;;;;22.30;12.10;;;;;;;1.23;80.42;101792.10;129946;1264;108707;-82
2024/01/30 06:14:33;;;;;;;51.40;25.00;;;;;;;1.21;80.51;101792.71;130031;1263;107477;-84
2024/01/30 06:17:39;;;;;;;30.90;14.70;;;;;;;1.16;80.54;101799.51;129923;1266;106319;-84
2024/01/30 06:20:45;;;;;;;27.70;13.80;;;;;;;1.14;80.57;101797.13;130007;1266;108693;-82
2024/01/30 06:23:51;;;;;;;56.10;27.70;;;;;;;1.11;80.59;101799.88;130016;1266;106524;-84
2024/01/30 06:26:56;;;;;;;61.20;30.00;;;;;;;1.09;80.57;101798.89;129997;1266;106790;-83
2024/01/30 06:30:02;;;;;;;21.90;11.60;;;;;;;1.05;80.66;101793.77;129968;1267;108685;-83
2024/01/30 06:33:08;;;;;;;28.70;14.30;;;;;;;1.04;80.76;101799.23;130031;1274;108659;-83
2024/01/30 06:36:13;;;;;;;27.80;12.70;;;;;;;1.08;80.87;101797.88;129886;1263;108782;-83
2024/01/30 06:39:19;;;;;;;26.30;12.00;;;;;;;1.15;80.77;101797.10;129919;1267;106979;-83
2024/01/30 06:42:25;;;;;;;50.70;24.60;;;;;;;1.25;80.76;101797.11;129993;1265;108653;-84
2024/01/30 06:45:30;;;;;;;30.10;14.00;;;;;;;1.35;80.71;101799.38;129954;1263;108728;-83
2024/01/30 06:48:37;;;;;;;41.90;21.60;;;;;;;1.42;80.88;101800.52;129945;1265;107648;-80
2024/01/30 06:51:42;;;;;;;41.30;20.30;;;;;;;1.48;80.65;101797.84;130116;1263;107059;-86
2024/01/30 06:54:48;;;;;;;52.20;24.70;;;;;;;1.53;80.59;101797.84;129954;1262;107513;-86
2024/01/30 06:57:53;;;;;;;42.40;20.70;;;;;;;1.56;80.65;101800.16;129973;1267;107864;-84
2024/01/30 07:00:59;;;;;;;60.40;29.10;;;;;;;1.59;80.53;101804.45;129996;1262;108726;-85
2024/01/30 07:04:05;;;;;;;50.20;21.50;;;;;;;1.62;80.46;101805.06;129899;1263;108495;-86
2024/01/30 07:07:13;;;;;;;43.40;17.80;;;;;;;1.64;80.59;101806.21;130052;1264;108673;-86
2024/01/30 07:10:19;;;;;;;55.10;26.80;;;;;;;1.64;80.46;101798.13;129966;1267;108621;-85
2024/01/30 07:13:25;;;;;;;84.10;37.30;;;;;;;1.68;80.34;101804.11;129926;1264;107609;-83
2024/01/30 07:16:31;;;;;;;201.50;80.30;;;;;;;1.70;80.46;101811.05;129996;1266;107420;-86
2024/01/30 07:19:36;;;;;;;248.00;91.80;;;;;;;1.73;80.53;101814.08;130016;1264;106443;-86
2024/01/30 07:22:42;;;;;;;46.20;19.90;;;;;;;1.78;80.53;101815.51;129910;1266;108698;-86
2024/01/30 07:25:48;;;;;;;95.60;37.40;;;;;;;1.82;80.48;101809.91;129881;1267;108712;-85
2024/01/30 07:28:54;;;;;;;33.30;16.20;;;;;;;1.92;80.52;101808.81;129970;1267;108724;-86
2024/01/30 07:31:59;;;;;;;217.50;91.70;;;;;;;2.05;80.34;101809.05;129890;1267;107676;-86
2024/01/30 07:35:05;;;;;;;54.20;23.50;;;;;;;2.17;80.51;101809.96;130025;1263;106390;-87
2024/01/30 07:38:11;;;;;;;75.00;34.90;;;;;;;2.29;80.32;101804.39;130035;1264;108865;-86
2024/01/30 07:41:16;;;;;;;40.30;20.20;;;;;;;2.38;80.19;101805.95;129969;1264;108450;-87
2024/01/30 07:44:23;;;;;;;60.50;29.10;;;;;;;2.46;80.07;101807.58;129863;1279;108801;-86
2024/01/30 07:47:29;;;;;;;31.60;16.10;;;;;;;2.53;80.17;101811.67;129886;1267;108053;-86
2024/01/30 07:50:34;;;;;;;40.60;21.20;;;;;;;2.59;80.13;101811.08;130003;1263;107612;-86
2024/01/30 07:53:41;;;;;;;38.20;20.70;;;;;;;2.62;79.90;101809.70;129906;1264;107540;-87
2024/01/30 07:56:47;;;;;;;24.50;13.80;;;;;;;2.66;79.87;101806.17;129905;1266;108747;-86
2024/01/30 07:59:55;;;;;;;25.00;13.90;;;;;;;2.70;79.94;101805.17;129882;1265;108701;-85
2024/01/30 08:03:01;;;;;;;24.00;12.30;;;;;;;2.72;79.71;101805.59;130027;1264;107066;-87
2024/01/30 08:06:07;;;;;;;24.20;13.00;;;;;;;2.75;79.78;101801.98;129948;1264;106480;-85
2024/01/30 08:09:13;;;;;;;25.90;15.10;;;;;;;2.78;79.70;101801.48;129881;1264;107322;-85
2024/01/30 08:12:18;;;;;;;32.70;17.60;;;;;;;2.73;79.62;101785.20;129948;1262;107078;-86
2024/01/30 08:15:24;;;;;;;25.30;14.20;;;;;;;2.84;79.59;101803.70;130029;1264;108740;-87
2024/01/30 08:18:29;;;;;;;29.00;16.50;;;;;;;2.88;79.59;101804.27;130003;1264;106712;-87
2024/01/30 08:21:36;;;;;;;31.40;18.60;;;;;;;2.96;79.56;101804.77;130017;1266;107950;-86
2024/01/30 08:24:43;;;;;;;22.90;12.60;;;;;;;3.07;79.47;101803.79;129921;1262;108057;-87
2024/01/30 08:27:49;;;;;;;32.10;18.80;;;;;;;3.18;79.35;101804.19;129899;1264;108751;-86
2024/01/30 08:30:55;;;;;;;23.80;13.20;;;;;;;3.27;79.35;101805.70;129851;1267;107862;-85
2024/01/30 08:34:01;;;;;;;22.40;12.80;;;;;;;3.34;79.19;101806.63;130038;1264;108625;-87
2024/01/30 08:37:06;;;;;;;21.20;12.00;;;;;;;3.39;78.79;101802.55;129931;1267;107765;-85
2024/01/30 08:40:12;;;;;;;22.40;12.30;;;;;;;3.43;78.92;101803.41;130037;1264;108437;-87
2024/01/30 08:43:18;;;;;;;20.40;13.20;;;;;;;3.47;78.74;101803.05;129928;1267;107938;-86
2024/01/30 08:46:24;;;;;;;26.50;13.40;;;;;;;3.50;78.63;101803.27;129893;1264;108719;-86
2024/01/30 08:49:29;;;;;;;51.30;25.70;;;;;;;3.53;78.62;101800.86;129948;1267;108758;-87
2024/01/30 08:52:35;;;;;;;201.60;77.70;;;;;;;3.55;78.11;101796.88;130029;1264;107773;-87
2024/01/30 08:55:40;;;;;;;115.90;44.70;;;;;;;3.56;78.44;101798.09;130002;1264;106357;-87
2024/01/30 08:58:46;;;;;;;93.50;36.00;;;;;;;3.60;78.61;101799.86;129898;1266;108098;-88
2024/01/30 09:01:53;;;;;;;67.90;28.20;;;;;;;3.62;78.44;101801.15;129952;1264;107617;-86
2024/01/30 09:04:59;;;;;;;41.10;16.90;;;;;;;3.65;78.37;101800.14;130023;1264;107135;-87
2024/01/30 09:08:05;;;;;;;358.70;141.60;;;;;;;3.68;78.57;101800.71;129947;1264;106787;-87
2024/01/30 09:11:13;;;;;;;257.70;83.00;;;;;;;3.71;78.13;101800.59;129941;1264;108419;-86
2024/01/30 09:14:19;;;;;;;101.30;36.40;;;;;;;3.73;78.13;101797.67;129916;1267;106569;-84
2024/01/30 09:17:25;;;;;;;53.80;22.70;;;;;;;3.77;78.16;101791.12;129857;1264;108503;-87
2024/01/30 09:20:30;;;;;;;46.50;21.10;;;;;;;3.81;78.14;101788.83;129958;1265;107643;-85
2024/01/30 09:23:36;;;;;;;138.30;66.80;;;;;;;3.85;78.09;101792.17;129806;1267;108840;-84
2024/01/30 09:26:43;;;;;;;73.20;36.10;;;;;;;3.89;77.97;101789.16;129843;1264;106314;-84
2024/01/30 09:29:48;;;;;;;55.30;30.60;;;;;;;3.92;77.84;101785.33;129808;1267;106681;-85
2024/01/30 09:32:54;;;;;;;33.30;19.10;;;;;;;3.96;77.81;101785.52;129980;1263;107694;-86
2024/01/30 09:35:59;;;;;;;33.00;18.20;;;;;;;4.00;77.70;101782.13;129987;1264;108228;-87
2024/01/30 09:39:06;;;;;;;21.40;12.70;;;;;;;4.04;77.83;101780.17;130016;1267;106851;-87
2024/01/30 09:42:25;;;;;;;28.10;20.70;;;;;;;4.10;77.38;101784.48;130049;1267;106787;-87
2024/01/30 09:45:33;;;;;;;30.90;20.20;;;;;;;4.15;77.46;101786.92;129941;1266;108797;-87
2024/01/30 09:48:39;;;;;;;20.90;12.60;;;;;;;4.19;77.26;101780.52;130049;1263;109077;-85
2024/01/30 09:51:45;;;;;;;20.30;11.30;;;;;;;4.23;77.31;101778.02;130003;1266;107608;-86
2024/01/30 09:54:52;;;;;;;19.70;11.80;;;;;;;4.28;77.24;101775.14;129993;1264;107703;-86
2024/01/30 09:57:57;;;;;;;18.10;10.80;;;;;;;4.33;77.13;101771.55;129933;1280;107355;-85
2024/01/30 10:01:03;;;;;;;17.90;10.30;;;;;;;4.38;77.12;101775.02;130025;1264;107748;-87
2024/01/30 10:04:09;;;;;;;16.80;10.80;;;;;;;4.43;76.98;101772.66;130061;1267;107178;-86
2024/01/30 10:07:15;;;;;;;17.40;10.70;;;;;;;4.48;77.17;101766.26;130110;1267;108182;-87
2024/01/30 10:10:22;;;;;;;17.00;10.40;;;;;;;4.52;77.05;101761.96;129948;1266;108441;-85
2024/01/30 10:13:27;;;;;;;18.10;11.40;;;;;;;4.58;76.40;101759.04;130065;1264;108355;-87
2024/01/30 10:16:33;;;;;;;17.50;11.10;;;;;;;4.62;76.52;101764.11;130044;1266;107808;-87
2024/01/30 10:19:39;;;;;;;18.80;11.30;;;;;;;4.67;76.25;101762.46;130042;1267;107662;-87
2024/01/30 10:22:45;;;;;;;19.90;11.70;;;;;;;4.71;76.47;101762.25;130047;1264;106650;-86
2024/01/30 10:25:53;;;;;;;20.30;13.50;;;;;;;4.76;76.56;101761.32;130041;1263;108010;-87
2024/01/30 10:28:58;;;;;;;16.80;10.90;;;;;;;4.82;76.45;101759.96;129906;1267;109658;-85
2024/01/30 10:32:05;;;;;;;18.30;11.50;;;;;;;4.85;76.50;101755.19;129978;1267;107234;-85
2024/01/30 10:35:11;;;;;;;19.10;11.50;;;;;;;4.91;76.25;101748.73;130020;1264;108913;-85
2024/01/30 10:38:19;;;;;;;16.80;11.00;;;;;;;4.97;76.21;101741.04;129965;1267;107688;-85
2024/01/30 10:41:30;;;;;;;17.90;10.50;;;;;;;5.00;76.33;101739.94;130042;1263;107591;-83
2024/01/30 10:44:44;;;;;;;15.60;10.50;;;;;;;5.04;75.99;101736.56;130094;1264;106529;-82
2024/01/30 10:47:53;;;;;;;19.70;11.40;;;;;;;5.09;75.51;101736.15;130173;1264;106893;-88
2024/01/30 10:51:03;;;;;;;16.70;10.90;;;;;;;5.12;75.89;101733.52;130106;1266;106465;-87
2024/01/30 10:54:10;;;;;;;21.10;13.20;;;;;;;5.16;76.07;101726.61;130038;1266;105746;-87
2024/01/30 10:57:18;;;;;;;22.30;12.40;;;;;;;5.21;75.87;101719.13;130075;1267;108665;-88
2024/01/30 11:00:26;;;;;;;22.00;12.50;;;;;;;5.25;75.62;101718.52;129921;1264;108642;-86
2024/01/30 11:03:34;;;;;;;20.10;13.10;;;;;;;5.30;75.40;101719.30;129979;1264;108402;-87
2024/01/30 11:06:44;;;;;;;41.20;23.90;;;;;;;5.35;75.56;101715.86;130001;1264;108597;-86
2024/01/30 11:09:53;;;;;;;33.70;18.60;;;;;;;5.39;75.46;101711.41;129925;1266;108699;-86
2024/01/30 11:12:59;;;;;;;27.20;15.70;;;;;;;5.44;75.39;101706.58;129897;1264;107535;-87
2024/01/30 11:16:06;;;;;;;23.30;12.80;;;;;;;5.49;75.27;101705.04;130104;1267;108662;-86
2024/01/30 11:19:14;;;;;;;19.90;11.30;;;;;;;5.54;75.13;101703.21;129890;1264;106064;-86
2024/01/30 11:22:23;;;;;;;22.60;12.40;;;;;;;5.60;75.11;101696.35;129923;1267;107539;-87
2024/01/30 11:25:29;;;;;;;20.40;11.10;;;;;;;5.65;74.95;101691.08;129842;1267;106291;-86
2024/01/30 11:28:38;;;;;;;20.70;11.20;;;;;;;5.70;74.83;101686.76;129924;1267;108803;-86
2024/01/30 11:31:54;;;;;;;17.00;10.20;;;;;;;5.70;74.35;101686.90;129884;1264;108584;-87
2024/01/30 11:35:00;;;;;;;15.80;9.50;;;;;;;5.70;74.68;101685.14;129887;1263;108778;-87
2024/01/30 11:38:07;;;;;;;14.80;9.40;;;;;;;5.77;74.62;101682.11;129896;1264;108763;-86
2024/01/30 11:41:14;;;;;;;15.70;9.20;;;;;;;5.87;74.78;101683.52;130004;1265;106944;-87
2024/01/30 11:44:20;;;;;;;16.00;9.20;;;;;;;5.95;74.41;101679.72;129918;1264;108358;-87
2024/01/30 11:47:26;;;;;;;16.50;9.50;;;;;;;6.02;74.03;101672.27;130000;1265;106618;-86
2024/01/30 11:50:33;;;;;;;16.40;9.40;;;;;;;6.08;74.51;101668.38;129922;1267;107725;-87
2024/01/30 11:53:38;;;;;;;13.50;8.90;;;;;;;6.15;73.91;101661.81;130072;1263;108823;-87
2024/01/30 11:56:44;;;;;;;14.00;8.70;;;;;;;6.18;73.79;101656.52;130034;1266;108745;-87
2024/01/30 11:59:50;;;;;;;15.30;9.00;;;;;;;6.21;73.71;101650.52;129946;1264;107475;-87
2024/01/30 12:02:56;;;;;;;13.70;8.00;;;;;;;6.25;73.78;101654.48;129897;1264;106935;-87
2024/01/30 12:06:03;;;;;;;15.00;8.00;;;;;;;6.30;73.47;101646.41;129841;1267;108691;-87
2024/01/30 12:09:12;;;;;;;13.90;8.60;;;;;;;6.34;73.37;101643.18;130022;1265;108719;-85
2024/01/30 12:12:17;;;;;;;14.40;9.00;;;;;;;6.39;72.84;101638.15;129883;1264;107630;-89
2024/01/30 12:15:24;;;;;;;12.40;8.10;;;;;;;6.44;73.41;101636.42;129821;1263;107708;-86
2024/01/30 12:18:29;;;;;;;13.40;8.30;;;;;;;6.47;73.04;101636.05;129861;1267;108402;-86
2024/01/30 12:21:36;;;;;;;11.00;7.50;;;;;;;6.51;72.97;101636.52;130138;1267;105945;-87
2024/01/30 12:24:42;;;;;;;11.40;7.70;;;;;;;6.53;72.73;101634.11;129965;1267;108104;-85
2024/01/30 12:27:50;;;;;;;16.70;8.80;;;;;;;6.55;72.30;101635.91;129976;1267;107667;-87
2024/01/30 12:31:02;;;;;;;14.30;8.50;;;;;;;6.56;72.54;101635.11;129993;1266;108719;-87
2024/01/30 12:34:08;;;;;;;13.00;7.60;;;;;;;6.57;72.53;101633.68;130031;1264;107241;-87
2024/01/30 12:37:19;;;;;;;11.90;7.90;;;;;;;6.58;72.50;101635.72;129920;1264;106595;-87
2024/01/30 12:40:26;;;;;;;14.30;8.00;;;;;;;6.60;72.04;101634.74;129950;1267;108739;-86
2024/01/30 12:43:32;;;;;;;11.70;7.80;;;;;;;6.62;71.95;101634.42;129856;1267;106633;-86
2024/01/30 12:46:38;;;;;;;13.40;8.00;;;;;;;6.62;72.09;101628.20;129875;1264;106748;-87
2024/01/30 12:49:44;;;;;;;15.90;9.20;;;;;;;6.64;71.23;101630.76;129894;1264;108570;-87
2024/01/30 12:52:49;;;;;;;15.10;8.90;;;;;;;6.64;71.74;101627.05;129904;1267;109055;-87
2024/01/30 12:55:55;;;;;;;16.80;10.20;;;;;;;6.65;71.91;101633.71;130024;1264;108652;-87
2024/01/30 12:59:00;;;;;;;15.00;9.20;;;;;;;6.64;71.60;101627.02;130052;1265;108750;-87
2024/01/30 13:02:07;;;;;;;20.70;11.30;;;;;;;6.65;71.67;101627.20;129978;1264;108717;-88
2024/01/30 13:05:13;;;;;;;16.50;9.80;;;;;;;6.65;71.73;101624.14;130066;1266;106557;-88
2024/01/30 13:08:18;;;;;;;14.90;8.80;;;;;;;6.66;71.36;101621.77;130056;1264;108777;-87
2024/01/30 13:11:25;;;;;;;13.30;7.70;;;;;;;6.67;70.99;101623.84;129991;1264;107607;-86
2024/01/30 13:14:31;;;;;;;12.00;8.10;;;;;;;6.68;70.76;101626.80;129939;1267;107814;-86
2024/01/30 13:17:37;;;;;;;13.20;7.60;;;;;;;6.69;71.27;101623.02;129979;1264;107274;-86
2024/01/30 13:20:43;;;;;;;12.30;7.70;;;;;;;6.71;71.04;101618.32;129937;1265;107357;-85
2024/01/30 13:23:52;;;;;;;12.20;7.20;;;;;;;6.73;70.85;101622.98;129930;1265;108583;-85
2024/01/30 13:26:58;;;;;;;14.40;7.50;;;;;;;6.73;70.79;101619.98;130006;1267;108649;-87
2024/01/30 13:30:05;;;;;;;11.40;7.60;;;;;;;6.73;70.61;101617.70;130158;1263;107544;-86
2024/01/30 13:33:11;;;;;;;12.60;7.40;;;;;;;6.72;70.57;101616.14;129983;1267;107200;-86
2024/01/30 13:36:17;;;;;;;13.90;7.60;;;;;;;6.71;70.56;101606.45;129978;1264;108545;-87
2024/01/30 13:39:23;;;;;;;13.10;7.60;;;;;;;6.70;70.30;101603.15;129882;1266;108723;-87
2024/01/30 13:42:28;;;;;;;12.30;7.50;;;;;;;6.69;70.24;101602.67;129940;1267;108511;-88
2024/01/30 13:45:34;;;;;;;12.50;7.60;;;;;;;6.67;70.44;101592.55;129875;1278;107068;-86
2024/01/30 13:48:40;;;;;;;13.30;8.40;;;;;;;6.66;70.18;101595.26;129861;1264;108692;-86
2024/01/30 13:51:45;;;;;;;12.50;7.90;;;;;;;6.65;70.18;101593.91;130050;1264;108610;-87
2024/01/30 13:54:51;;;;;;;13.40;8.40;;;;;;;6.64;70.46;101593.09;129967;1264;108469;-88
2024/01/30 13:57:56;;;;;;;15.10;8.80;;;;;;;6.63;70.15;101595.27;129978;1267;109409;-88